• Join FlightAware (Why Join?)
  • Login
  • US Flag 
02:23AM EDT


 

Airport Tracker/Info


-or-


 

Live Flight TrackerFlight Track Log ✈ EGF3520 ✈ 25-Jun-2013 ✈ KBNA - KDCA

Flight Track Log - Related Links

Times and Time Zones

All times are in EDT time to prevent confusion due to time zone crossing. See the EGF3520 flight status page for this flight to view local times or setup timezone preferences in your user account.

Time Position Orientation Groundspeed Altitude Reporting Facility
EDT Latitude Longitude Course Direction KTS MPH feet Rate Location/Type
04:14PM 36.1000 -86.6833 68° East 166 191 1,200  Level Nashville TRACON
04:15PM 36.0500 -86.6667 165° South 209 241 2,900 1,680 Climbing Nashville TRACON
04:16PM 36.0500 -86.5833 90° East 269 310 4,400 1,800 Climbing Nashville TRACON
04:17PM 36.1946 -86.1043 80° East  Level FlightAware Approximate
04:17PM 36.0833 -86.5000 64° Northeast 279 321 6,800  Level Nashville TRACON
04:17PM 36.0869 -86.4608 83° East 271 312 7,700 2,160 Climbing Memphis Center
04:18PM 36.2376 -85.9727 64° Northeast  Level FlightAware Approximate
04:18PM 36.1131 -86.3694 70° East 312 359 10,100  Level Memphis Center
04:19PM 36.2858 -85.8427 68° East  Level FlightAware Approximate
04:19PM 36.1431 -86.2653 70° East 317 365 11,300  Level Memphis Center
04:20PM 36.1786 -86.1428 70° East 329 379 12,400 1,020 Climbing Memphis Center
04:21PM 36.2206 -86.0272 66° East 354 407 13,400 960 Climbing Memphis Center
04:22PM 36.2706 -85.9114 62° Northeast 371 427 14,400 1,020 Climbing Memphis Center
04:23PM 36.3278 -85.7836 61° Northeast 393 452 15,600 960 Climbing Indianapolis Center
04:24PM 36.3842 -85.6636 60° Northeast 400 460 16,500 900 Climbing Indianapolis Center
04:25PM 36.4422 -85.5433 59° Northeast 405 466 17,500 840 Climbing Indianapolis Center
04:26PM 36.5014 -85.4206 59° Northeast 411 473 18,300 840 Climbing Indianapolis Center
04:27PM 36.5589 -85.2969 60° Northeast 412 474 19,300 960 Climbing Indianapolis Center
04:28PM 36.6178 -85.1697 60° Northeast 421 484 20,300 1,020 Climbing Indianapolis Center
04:30PM 36.6678 -85.0033 69° East 429 494 21,500 1,020 Climbing Indianapolis Center
04:31PM 36.7100 -84.8639 69° East 429 494 22,500 900 Climbing Indianapolis Center
04:32PM 36.7536 -84.7219 69° East 435 501 23,400 900 Climbing Indianapolis Center
04:33PM 36.7956 -84.5806 70° East 437 503 24,400 960 Climbing Indianapolis Center
04:34PM 36.8419 -84.4281 69° East 436 502 25,500 960 Climbing Indianapolis Center
04:35PM 36.8839 -84.2872 70° East 433 498 26,500 960 Climbing Indianapolis Center
04:36PM 36.9272 -84.1469 69° East 433 498 27,500 1,260 Climbing Indianapolis Center
04:37PM 36.9678 -84.0089 70° East 426 490 29,200 1,740 Climbing Indianapolis Center
04:38PM 37.0075 -83.8761 69° East 413 475 31,100 1,320 Climbing Indianapolis Center
04:39PM 37.0533 -83.7236 69° East 401 461 32,000 420 Climbing Indianapolis Center
04:40PM 37.0750 -83.5733 80° East 435 501 32,000  Level Indianapolis Center
04:41PM 37.0681 -83.4147 93° East 455 524 32,000 420 Level Indianapolis Center
04:42PM 37.0619 -83.2542 93° East 460 529 32,900 480 Climbing Indianapolis Center
04:43PM 37.0575 -83.0936 92° East 459 528 33,000  Climbing Indianapolis Center
04:44PM 37.0550 -82.9331 91° East 456 525 33,000  Level Indianapolis Center
04:45PM 37.0950 -82.7503 75° East 468 539 33,000 480 Level Indianapolis Center
04:46PM 37.1594 -82.6069 61° Northeast 469 540 34,000 480 Climbing Indianapolis Center
04:47PM 37.2206 -82.4575 63° Northeast 480 552 34,000  Level Indianapolis Center
04:49PM 37.2808 -82.2793 65° Northeast  Level FlightAware Approximate
04:49PM 37.3325 -82.1739 65° Northeast 448 516 34,000  Level Indianapolis Center
04:50PM 37.3864 -82.0381 63° Northeast 437 503 34,000  Level Indianapolis Center
04:51PM 37.4497 -81.8778 63° Northeast 440 506 34,000  Level Indianapolis Center
04:52PM 37.5225 -81.7419 56° Northeast 470 541 34,000  Level Indianapolis Center
04:53PM 37.6119 -81.6197 47° Northeast 475 547 34,000  Level Indianapolis Center
04:54PM 37.6919 -81.4919 52° Northeast 456 525 34,000 360 Level Indianapolis Center
04:55PM 37.7692 -81.3708 51° Northeast 455 524 34,800 1,380 Climbing Indianapolis Center
04:56PM 37.8436 -81.2225 58° Northeast 434 499 36,900 1,020 Climbing Indianapolis Center
04:57PM 37.8864 -81.0794 69° East 433 498 37,000  Climbing Indianapolis Center
04:58PM 37.9322 -80.9283 69° East 456 525 37,000  Level Indianapolis Center
04:59PM 37.9794 -80.7792 68° East 458 527 37,000  Level Indianapolis Center
05:01PM 38.0231 -80.6347 69° East 445 512 37,000 -300 Level Indianapolis Center
05:02PM 38.0664 -80.4917 69° East 439 505 36,500 -1,140 Descending Indianapolis Center
05:03PM 38.1192 -80.3161 69° East 444 511 34,700 -1,740 Descending Indianapolis Center
05:04PM 38.1647 -80.1619 69° East 463 533 33,000 -1,560 Descending Indianapolis Center
05:05PM 38.2147 -80.0158 66° East 462 532 31,500 -1,200 Descending Washington Center
05:06PM 38.2600 -79.8597 70° East 462 532 30,500 -1,440 Descending Washington Center
05:07PM 38.3050 -79.7064 69° East 462 532 28,700 -1,740 Descending Washington Center
05:08PM 38.3519 -79.5525 69° East 462 532 27,100 -1,500 Descending Washington Center
05:09PM 38.3942 -79.4064 70° East 457 526 25,800 -1,200 Descending Washington Center
05:10PM 38.4347 -79.2469 72° East 440 506 24,700 -1,920 Descending Washington Center
05:11PM 38.4575 -79.1075 78° East 415 478 22,100 -2,400 Descending Washington Center
05:12PM 38.4844 -78.9736 76° East 398 458 20,000 -1,560 Descending Washington Center
05:13PM 38.5025 -78.8444 80° East 385 443 19,000 -540 Descending Washington Center
05:14PM 38.5269 -78.7047 77° East 385 443 19,000  Level Washington Center
05:15PM 38.5472 -78.5675 79° East 391 450 19,000  Level Washington Center
05:16PM 38.5672 -78.4328 79° East 391 450 19,000 -840 Level Washington Center
05:17PM 38.5886 -78.3089 78° East 376 433 17,400 -2,400 Descending Washington Center
05:18PM 38.6164 -78.1931 73° East 352 405 14,300 -1,740 Descending Washington Center
05:19PM 38.6497 -78.0906 67° East 328 377 14,000 -660 Descending Washington Center
05:20PM 38.6833 -77.9825 68° East 318 366 13,000 -540 Descending Washington Center
05:21PM 38.7164 -77.8797 68° East 311 358 13,000 -480 Level Washington Center
05:22PM 38.7578 -77.7881 60° Northeast 306 352 12,100 -1,020 Descending Washington Center
05:23PM 38.8133 -77.7097 48° Northeast 296 341 11,000 -1,260 Descending Washington Center
05:24PM 38.8669 -77.6339 48° Northeast 290 334 9,600 -1,260 Descending Washington Center
05:25PM 38.9500 -77.4833 55° Northeast 266 306 7,500 -1,320 Descending Potomac TRACON
05:26PM 38.9667 -77.4167 72° East 266 306 6,200 -1,320 Descending Potomac TRACON
05:27PM 38.9833 -77.3167 78° East 250 288 5,000 -1,200 Descending Potomac TRACON
05:28PM 38.9833 -77.2333 90° East 239 275 3,900 -1,140 Descending Potomac TRACON